Bassett, Wisconsin
Current Conditions -  °F | °C
As of 7:15 AM on Monday 22 Dec 2014 (Local Time) from KBUU Reporting Station
Haze Haze  
Wind Chill: 23°   Ceiling: 4900
Heat Index: 30°   Visibility: 5mi
Dew Point: 27°   Wind: 7mph
Humidity: 86%   Direction: 120°ESE
Pressure: 29.92"   Gusts: NA
Location:  42.54°N, 88.23°W
Report Text: KBUU 221315Z AUTO 12006KT 5SM BR BKN049 OVC070 M01/M03 A2992 RMK AO2 T10101030
Loading
Personal Weather Stations






























Interactive Weather Map New forecast layout! Learn more

10-Day Weather Forecast

Advertisements
Track Severe Weather on mobile